Time;durP1;ratioP1;P1;durP2;ratioP2;P2;SDS_P1;SDS_P2;PMS_P1;PMS_P2;Temp;Humidity;BMP_temperature;BMP_pressure;BME280_temperature;BME280_humidity;BME280_pressure;Samples;Min_cycle;Max_cycle;Signal;HPM_P1;HPM_P2
2022/03/29 00:01:57;;;;;;;37.20;15.38;;;;;;;5.88;55.86;95377.47;5110511;27;20093;-76
2022/03/29 00:04:22;;;;;;;34.92;14.73;;;;;;;5.91;55.25;95366.56;5120626;27;20044;-76
2022/03/29 00:06:49;;;;;;;39.92;16.08;;;;;;;5.86;55.67;95363.88;5088790;28;20040;-76
2022/03/29 00:09:14;;;;;;;38.08;14.90;;;;;;;5.92;55.87;95359.50;5088989;28;20079;-76
2022/03/29 00:11:41;;;;;;;40.75;15.13;;;;;;;5.75;55.89;95357.75;5071186;28;20067;-75
2022/03/29 00:14:07;;;;;;;39.42;14.63;;;;;;;5.68;57.24;95357.91;5087158;28;20533;-75
2022/03/29 00:16:33;;;;;;;33.00;14.77;;;;;;;5.68;55.74;95355.28;5089475;28;20047;-76
2022/03/29 00:18:59;;;;;;;42.25;15.55;;;;;;;5.68;57.48;95357.91;5098872;28;20109;-75
2022/03/29 00:21:25;;;;;;;38.92;14.05;;;;;;;5.52;58.08;95354.31;5091330;28;20043;-76
2022/03/29 00:23:51;;;;;;;34.08;14.02;;;;;;;5.64;56.59;95356.81;5092078;28;20520;-76
2022/03/29 00:26:16;;;;;;;39.63;15.43;;;;;;;5.81;56.16;95345.53;5088822;28;20546;-76
2022/03/29 00:28:42;;;;;;;45.33;14.43;;;;;;;5.76;56.99;95343.66;5089019;28;20046;-77
2022/03/29 00:31:09;;;;;;;45.20;14.95;;;;;;;5.60;56.63;95345.25;5088654;28;20048;-77
2022/03/29 00:33:35;;;;;;;35.38;13.20;;;;;;;5.38;58.09;95342.63;5092505;28;20044;-77
2022/03/29 00:36:00;;;;;;;38.05;15.35;;;;;;;5.53;57.27;95340.22;5099332;28;20408;-76
2022/03/29 00:38:26;;;;;;;38.05;14.75;;;;;;;6.02;55.78;95342.16;5080911;28;20548;-76
2022/03/29 00:40:53;;;;;;;39.00;16.60;;;;;;;6.30;54.78;95332.50;5091202;28;22365;-77
2022/03/29 00:43:18;;;;;;;42.72;15.50;;;;;;;6.50;53.94;95331.16;5072510;28;20417;-77
2022/03/29 00:45:45;;;;;;;39.10;15.18;;;;;;;6.60;53.27;95328.63;5088839;28;20048;-76
2022/03/29 00:48:12;;;;;;;34.83;15.40;;;;;;;6.51;53.87;95327.50;5070581;28;20036;-76
2022/03/29 00:50:38;;;;;;;37.17;14.48;;;;;;;6.63;53.72;95325.50;5089865;28;20044;-77
2022/03/29 00:53:08;;;;;;;36.85;15.50;;;;;;;6.74;53.07;95327.16;5097663;28;20048;-76
2022/03/29 00:55:35;;;;;;;34.90;15.00;;;;;;;6.93;52.38;95324.19;5102549;28;20039;-76
2022/03/29 00:58:06;;;;;;;35.65;15.18;;;;;;;6.98;52.16;95323.44;5100750;28;20048;-75
2022/03/29 01:00:34;;;;;;;35.50;14.00;;;;;;;7.03;52.21;95321.63;5097169;28;20070;-76
2022/03/29 01:03:03;;;;;;;36.28;14.77;;;;;;;7.11;51.85;95315.94;5100213;28;20119;-74
2022/03/29 01:05:29;;;;;;;39.40;14.60;;;;;;;7.14;52.23;95313.84;5090795;28;20044;-75
2022/03/29 01:07:59;;;;;;;37.25;14.75;;;;;;;7.03;51.92;95319.03;5092311;28;20044;-75
2022/03/29 01:10:25;;;;;;;30.10;13.88;;;;;;;7.09;51.94;95307.53;5078818;28;20074;-75
2022/03/29 01:12:55;;;;;;;38.90;15.07;;;;;;;7.22;51.37;95305.53;5108742;28;20043;-75
2022/03/29 01:15:24;;;;;;;33.10;13.95;;;;;;;7.22;51.25;95305.53;5097054;28;20121;-75
2022/03/29 01:17:50;;;;;;;36.78;15.02;;;;;;;7.34;51.52;95302.72;5100538;28;20044;-75
2022/03/29 01:20:22;;;;;;;37.50;15.73;;;;;;;7.32;51.40;95300.34;5102898;28;20443;-76
2022/03/29 01:22:50;;;;;;;34.65;15.60;;;;;;;7.42;51.14;95297.00;5096316;28;20047;-75
2022/03/29 01:25:19;;;;;;;33.10;13.88;;;;;;;7.33;51.50;95290.69;5106315;28;20063;-75
2022/03/29 01:27:47;;;;;;;40.50;16.60;;;;;;;7.35;51.31;95286.75;5091668;28;20078;-75
2022/03/29 01:30:13;;;;;;;30.85;14.20;;;;;;;7.38;51.16;95283.63;5112642;28;20055;-75
2022/03/29 01:32:43;;;;;;;35.08;13.77;;;;;;;7.36;51.11;95280.50;5081589;28;20040;-75
2022/03/29 01:35:08;;;;;;;35.08;14.73;;;;;;;7.36;52.03;95275.25;5092075;28;20725;-75
2022/03/29 01:37:35;;;;;;;34.80;14.20;;;;;;;7.35;51.57;95278.91;5101857;28;20044;-75
2022/03/29 01:40:08;;;;;;;33.80;14.48;;;;;;;7.30;51.74;95271.03;5109828;28;20124;-75
2022/03/29 01:42:35;;;;;;;35.53;14.30;;;;;;;7.23;52.28;95265.25;5088871;28;20040;-75
2022/03/29 01:45:01;;;;;;;36.47;14.23;;;;;;;7.23;51.73;95260.00;5108581;28;20047;-75
2022/03/29 01:47:26;;;;;;;32.63;14.38;;;;;;;7.15;52.12;95255.25;5109263;28;20040;-75
2022/03/29 01:49:52;;;;;;;33.03;13.82;;;;;;;7.25;51.92;95258.69;5106236;28;20089;-75
2022/03/29 01:52:18;;;;;;;32.38;14.35;;;;;;;7.32;52.26;95255.84;5101181;28;20043;-75
2022/03/29 01:54:43;;;;;;;32.63;13.90;;;;;;;7.32;51.71;95242.75;5092433;28;20051;-75
2022/03/29 01:57:10;;;;;;;35.33;13.82;;;;;;;7.33;51.34;95254.81;5091863;28;20072;-75
2022/03/29 02:02:21;;;;;;;31.83;13.85;;;;;;;7.26;51.61;95236.72;5100261;28;20093;-76
2022/03/29 02:04:46;;;;;;;31.35;13.38;;;;;;;7.21;52.00;95238.53;5089303;28;20040;-75
2022/03/29 02:07:12;;;;;;;33.72;14.13;;;;;;;7.20;52.05;95229.13;5091755;28;20095;-75
2022/03/29 02:09:37;;;;;;;31.75;14.02;;;;;;;7.17;51.48;95230.41;5091473;28;20098;-75
2022/03/29 02:12:05;;;;;;;38.47;14.23;;;;;;;7.20;51.68;95226.50;5097907;28;20036;-75
2022/03/29 02:14:30;;;;;;;32.65;13.73;;;;;;;7.16;51.99;95228.03;5075034;28;20162;-75
2022/03/29 02:16:56;;;;;;;31.33;13.60;;;;;;;7.06;52.88;95229.56;5072548;28;20048;-75
2022/03/29 02:19:21;;;;;;;34.00;13.65;;;;;;;7.07;52.88;95215.44;5091213;28;20040;-75
2022/03/29 02:21:47;;;;;;;31.08;13.02;;;;;;;7.08;52.14;95211.78;5091217;28;20040;-75
2022/03/29 02:24:13;;;;;;;31.45;13.25;;;;;;;7.10;52.31;95211.53;5102224;28;20050;-75
2022/03/29 02:26:38;;;;;;;33.75;13.75;;;;;;;7.03;52.53;95209.13;5097883;28;20046;-75
2022/03/29 02:29:04;;;;;;;34.17;14.32;;;;;;;6.86;53.40;95205.91;5091172;28;20052;-75
2022/03/29 02:31:29;;;;;;;36.15;14.23;;;;;;;6.96;53.28;95208.56;5095125;28;20457;-75
2022/03/29 02:33:55;;;;;;;25.90;12.48;;;;;;;6.82;54.27;95202.22;5103899;28;20036;-75
2022/03/29 02:36:20;;;;;;;36.15;13.38;;;;;;;6.81;53.03;95201.44;5107045;28;20078;-75
2022/03/29 02:38:46;;;;;;;32.22;14.20;;;;;;;6.65;54.11;95192.69;5090700;28;20122;-75
2022/03/29 02:41:11;;;;;;;33.83;13.45;;;;;;;6.58;54.01;95194.75;5072504;28;20051;-76
2022/03/29 02:43:37;;;;;;;33.70;13.68;;;;;;;6.64;53.52;95195.53;5089238;28;20039;-75
2022/03/29 02:46:03;;;;;;;30.25;12.32;;;;;;;6.66;54.46;95191.66;5102036;28;20036;-75
2022/03/29 02:48:30;;;;;;;29.85;13.05;;;;;;;6.50;54.39;95189.97;5088908;28;20043;-76
2022/03/29 02:50:56;;;;;;;27.58;12.88;;;;;;;6.64;53.90;95185.88;5095476;28;20037;-76
2022/03/29 02:53:22;;;;;;;29.75;12.48;;;;;;;6.74;53.57;95185.94;5114416;27;20044;-76
2022/03/29 02:55:47;;;;;;;34.03;13.15;;;;;;;6.52;55.11;95182.66;5092515;28;20477;-75
2022/03/29 02:58:13;;;;;;;31.23;13.07;;;;;;;6.59;54.17;95186.66;5098570;28;20493;-75
2022/03/29 03:00:39;;;;;;;28.60;12.90;;;;;;;6.39;55.66;95178.66;5097188;28;20127;-75
2022/03/29 03:03:05;;;;;;;28.70;12.88;;;;;;;6.42;55.62;95183.38;5073805;28;20040;-76
2022/03/29 03:05:30;;;;;;;31.17;12.90;;;;;;;6.26;56.18;95190.31;5084536;28;20528;-77
2022/03/29 03:07:56;;;;;;;30.83;12.55;;;;;;;6.38;55.41;95182.31;5099558;28;20044;-75
2022/03/29 03:10:22;;;;;;;26.15;12.73;;;;;;;6.29;56.17;95184.59;5093406;28;20051;-76
2022/03/29 03:12:49;;;;;;;26.45;12.20;;;;;;;6.36;56.12;95187.78;5089958;28;20127;-74
2022/03/29 03:15:18;;;;;;;30.15;12.75;;;;;;;6.34;55.98;95176.78;5089828;28;20043;-73
2022/03/29 03:17:44;;;;;;;28.80;12.98;;;;;;;6.51;55.19;95170.66;5082585;28;20118;-73
2022/03/29 03:20:11;;;;;;;29.52;13.20;;;;;;;6.58;54.63;95173.84;5107876;28;20503;-74
2022/03/29 03:22:38;;;;;;;25.10;11.38;;;;;;;6.56;54.50;95178.50;5105472;28;20048;-73
2022/03/29 03:25:04;;;;;;;34.47;13.73;;;;;;;6.58;54.65;95169.38;5094595;28;20130;-73
2022/03/29 03:27:30;;;;;;;27.05;12.98;;;;;;;6.53;55.52;95173.78;5081967;28;20109;-74
2022/03/29 03:29:55;;;;;;;28.00;12.38;;;;;;;6.50;55.43;95179.53;5092244;28;20512;-74
2022/03/29 03:32:21;;;;;;;28.38;13.00;;;;;;;6.53;55.01;95168.56;5080048;28;20069;-73
2022/03/29 03:34:46;;;;;;;34.30;13.07;;;;;;;6.36;55.82;95164.25;5101562;28;20051;-74
2022/03/29 03:37:12;;;;;;;32.22;13.57;;;;;;;6.44;55.25;95164.81;5089646;28;20048;-74
2022/03/29 03:39:38;;;;;;;25.30;11.73;;;;;;;6.38;55.40;95159.56;5089233;28;20066;-74
2022/03/29 03:42:11;;;;;;;27.33;12.23;;;;;;;6.44;55.47;95156.97;5089801;28;20042;-74
2022/03/29 03:44:38;;;;;;;29.88;12.90;;;;;;;6.21;56.96;95157.09;5090654;28;20035;-74
2022/03/29 03:47:05;;;;;;;31.25;12.02;;;;;;;6.01;57.70;95157.72;5103658;27;20040;-74
2022/03/29 03:49:31;;;;;;;24.58;11.60;;;;;;;5.83;58.29;95145.81;5109960;28;20047;-74
2022/03/29 03:51:56;;;;;;;31.92;11.73;;;;;;;5.56;59.19;95145.81;5090555;28;20127;-74
2022/03/29 03:54:22;;;;;;;29.75;12.60;;;;;;;5.52;59.15;95142.09;5088952;28;20044;-74
2022/03/29 03:56:47;;;;;;;27.10;11.13;;;;;;;5.36;60.35;95141.16;5089207;28;20070;-74
2022/03/29 03:59:13;;;;;;;26.20;11.93;;;;;;;4.97;62.51;95144.63;5089105;28;20047;-74
2022/03/29 04:01:38;;;;;;;28.77;12.43;;;;;;;4.95;62.74;95146.69;5094978;28;20047;-74
2022/03/29 04:04:04;;;;;;;34.55;12.50;;;;;;;4.94;61.69;95137.31;5107461;28;20118;-74
2022/03/29 04:06:30;;;;;;;28.90;12.30;;;;;;;4.82;61.86;95126.19;5096782;28;20050;-74
2022/03/29 04:08:55;;;;;;;31.42;12.52;;;;;;;4.65;62.81;95129.63;5076395;28;20101;-74
2022/03/29 04:11:21;;;;;;;34.25;12.02;;;;;;;4.52;64.68;95132.56;5071076;28;20564;-74
2022/03/29 04:13:46;;;;;;;33.88;12.27;;;;;;;4.63;62.56;95129.06;5091027;28;20511;-74
2022/03/29 04:16:12;;;;;;;33.65;13.05;;;;;;;4.48;64.72;95131.47;5089672;28;20450;-74
2022/03/29 04:18:37;;;;;;;28.30;11.07;;;;;;;4.52;63.13;95127.38;5088972;28;20529;-74
2022/03/29 04:21:05;;;;;;;25.67;12.38;;;;;;;4.49;63.62;95117.44;5096995;28;20040;-74
2022/03/29 04:23:31;;;;;;;29.23;12.10;;;;;;;4.47;63.31;95119.50;5102113;28;20047;-74
2022/03/29 04:25:57;;;;;;;26.50;11.95;;;;;;;4.44;63.34;95114.72;5101970;28;20040;-74
2022/03/29 04:28:23;;;;;;;25.75;12.07;;;;;;;4.44;64.14;95115.53;5100903;28;20092;-74
2022/03/29 04:30:48;;;;;;;29.75;12.15;;;;;;;4.37;64.44;95114.13;5091161;28;20040;-74
2022/03/29 04:33:14;;;;;;;26.23;11.45;;;;;;;4.36;64.67;95107.34;5088943;28;20063;-74
2022/03/29 04:35:40;;;;;;;31.55;12.63;;;;;;;4.34;64.81;95100.56;5088549;28;20060;-74
2022/03/29 04:38:05;;;;;;;27.33;11.10;;;;;;;4.43;64.60;95102.75;5070671;28;20455;-74
2022/03/29 04:40:31;;;;;;;23.83;11.35;;;;;;;4.31;64.63;95101.03;5091295;28;20048;-73
2022/03/29 04:43:00;;;;;;;28.35;12.18;;;;;;;4.08;66.59;95102.00;5099601;28;20044;-74
2022/03/29 04:45:25;;;;;;;25.83;11.50;;;;;;;3.98;67.52;95097.44;5102107;28;20046;-74
2022/03/29 04:47:51;;;;;;;26.02;11.52;;;;;;;4.09;66.16;95094.97;5104638;28;20043;-74
2022/03/29 04:50:17;;;;;;;24.70;10.80;;;;;;;4.07;65.72;95094.44;5112455;28;20508;-74
2022/03/29 04:52:47;;;;;;;27.17;11.57;;;;;;;4.15;65.76;95088.81;5084681;28;20036;-74
2022/03/29 04:55:17;;;;;;;24.58;11.70;;;;;;;4.14;65.13;95095.06;5091469;28;20047;-74
2022/03/29 04:57:45;;;;;;;22.60;10.90;;;;;;;4.07;65.70;95089.22;5093180;28;20040;-74
2022/03/29 05:00:12;;;;;;;28.35;11.90;;;;;;;3.95;66.53;95087.50;5092639;28;20040;-74
2022/03/29 05:02:43;;;;;;;28.00;11.90;;;;;;;4.05;65.90;95081.66;5074143;28;20036;-74
2022/03/29 05:05:10;;;;;;;29.23;11.23;;;;;;;3.99;66.15;95083.41;5096075;28;20066;-74
2022/03/29 05:07:46;;;;;;;25.63;11.32;;;;;;;3.96;67.40;95083.84;5089143;28;20032;-74
2022/03/29 05:10:14;;;;;;;32.53;11.82;;;;;;;3.89;67.90;95078.00;5077139;28;20044;-74
2022/03/29 05:12:44;;;;;;;27.48;11.45;;;;;;;4.00;66.95;95078.97;5107956;28;20060;-75
2022/03/29 05:15:11;;;;;;;24.13;11.05;;;;;;;3.95;66.51;95082.28;5098401;28;20089;-75
2022/03/29 05:17:37;;;;;;;22.50;10.82;;;;;;;3.91;66.92;95081.19;5105361;28;20059;-75
2022/03/29 05:20:04;;;;;;;26.80;11.48;;;;;;;3.88;66.97;95076.47;5092518;28;20040;-75
2022/03/29 05:22:30;;;;;;;26.02;11.15;;;;;;;4.08;66.82;95080.38;5094971;28;20072;-75
2022/03/29 05:24:56;;;;;;;24.95;11.23;;;;;;;4.03;67.20;95073.28;5092336;28;20048;-74
2022/03/29 05:27:22;;;;;;;28.95;11.90;;;;;;;3.97;67.37;95076.84;5092208;28;20503;-74
2022/03/29 05:29:47;;;;;;;22.75;11.57;;;;;;;3.92;67.02;95077.56;5098028;28;20088;-74
2022/03/29 05:32:18;;;;;;;28.92;11.07;;;;;;;3.87;67.99;95074.88;5110228;28;20048;-74
2022/03/29 05:34:46;;;;;;;20.40;10.85;;;;;;;3.96;68.10;95072.66;5110458;28;20043;-74
2022/03/29 05:37:12;;;;;;;25.10;10.63;;;;;;;3.94;68.11;95075.50;5094081;28;20081;-74
2022/03/29 05:39:40;;;;;;;23.50;10.48;;;;;;;3.90;68.38;95071.78;5112333;28;20043;-75
2022/03/29 05:42:06;;;;;;;23.92;11.38;;;;;;;3.90;68.92;95069.19;5087319;28;20097;-75
2022/03/29 05:44:31;;;;;;;25.73;11.20;;;;;;;3.88;69.03;95070.44;5095240;28;20040;-74
2022/03/29 05:49:41;;;;;;;27.25;10.57;;;;;;;4.03;67.86;95067.28;5092313;28;20593;-77
2022/03/29 05:52:06;;;;;;;24.52;10.73;;;;;;;4.18;67.43;95070.13;5075798;28;20040;-76
2022/03/29 05:54:32;;;;;;;27.17;11.48;;;;;;;4.14;67.96;95064.59;5091305;28;20041;-75
2022/03/29 05:56:58;;;;;;;34.92;11.55;;;;;;;4.16;68.32;95072.16;5092182;28;20543;-75
2022/03/29 05:59:23;;;;;;;24.33;11.55;;;;;;;4.27;67.57;95073.88;5101349;28;20036;-76
2022/03/29 06:01:49;;;;;;;27.33;11.55;;;;;;;4.29;67.86;95077.03;5106675;28;20036;-75
2022/03/29 06:04:14;;;;;;;26.65;10.65;;;;;;;4.33;67.86;95082.56;5093430;28;20044;-76
2022/03/29 06:06:41;;;;;;;27.65;10.70;;;;;;;4.34;67.87;95069.28;5091691;28;20043;-76
2022/03/29 06:09:07;;;;;;;28.17;10.88;;;;;;;4.37;68.26;95077.66;5091227;28;20497;-76
2022/03/29 06:11:32;;;;;;;28.38;11.23;;;;;;;4.36;68.70;95076.09;5093304;28;20044;-76
2022/03/29 06:13:58;;;;;;;28.95;11.80;;;;;;;4.46;68.46;95081.44;5091189;28;20043;-76
2022/03/29 06:16:24;;;;;;;20.30;9.90;;;;;;;4.54;68.60;95073.19;5105662;28;20047;-76
2022/03/29 06:18:50;;;;;;;25.02;11.38;;;;;;;4.66;68.16;95076.47;5092687;28;20517;-76
2022/03/29 06:21:16;;;;;;;23.88;11.43;;;;;;;4.68;69.02;95073.63;5104636;28;20068;-77
2022/03/29 06:23:42;;;;;;;41.65;11.77;;;;;;;4.68;69.20;95074.41;5092383;28;20496;-76
2022/03/29 06:26:09;;;;;;;31.15;11.35;;;;;;;4.85;69.24;95083.97;5105590;28;20043;-76
2022/03/29 06:28:34;;;;;;;31.45;11.50;;;;;;;4.98;69.67;95077.63;5093081;28;20043;-76
2022/03/29 06:31:00;;;;;;;25.58;10.98;;;;;;;5.18;68.38;95082.25;5109503;28;20047;-76
2022/03/29 06:33:26;;;;;;;34.05;11.23;;;;;;;5.46;67.38;95080.44;5108414;28;20040;-76
2022/03/29 06:35:52;;;;;;;31.50;11.27;;;;;;;5.50;67.61;95087.53;5090967;28;20043;-76
2022/03/29 06:38:21;;;;;;;28.02;10.93;;;;;;;5.63;67.87;95081.13;5092173;28;20429;-76
2022/03/29 06:40:50;;;;;;;22.55;10.93;;;;;;;5.94;68.36;95076.13;5100847;28;20112;-76
2022/03/29 06:43:16;;;;;;;25.05;9.77;;;;;;;6.35;61.15;95078.25;5105241;28;20032;-76
2022/03/29 06:45:42;;;;;;;26.40;10.30;;;;;;;6.45;63.68;95077.53;5091725;28;20542;-75
2022/03/29 06:48:08;;;;;;;25.40;9.98;;;;;;;6.75;60.84;95077.69;5105628;28;20040;-73
2022/03/29 06:50:35;;;;;;;22.08;10.07;;;;;;;7.10;57.92;95075.47;5103843;28;20044;-75
2022/03/29 06:53:01;;;;;;;19.65;9.98;;;;;;;7.35;56.58;95072.09;5089468;28;20443;-74
2022/03/29 06:55:28;;;;;;;19.65;9.77;;;;;;;7.55;54.78;95073.19;5095534;28;20039;-74
2022/03/29 06:57:53;;;;;;;19.58;9.07;;;;;;;7.66;55.30;95080.00;5095817;28;20050;-73
2022/03/29 07:00:20;;;;;;;20.42;10.30;;;;;;;7.80;54.88;95070.59;5090995;28;20040;-73
2022/03/29 07:02:46;;;;;;;17.60;9.38;;;;;;;7.99;54.44;95062.19;5101178;28;20039;-73
2022/03/29 07:05:12;;;;;;;19.67;9.15;;;;;;;8.06;53.55;95059.28;5088784;28;20488;-75
2022/03/29 07:07:38;;;;;;;22.38;9.88;;;;;;;8.24;53.15;95057.97;5090509;28;20051;-73
2022/03/29 07:12:50;;;;;;;20.17;9.70;;;;;;;8.40;53.07;95056.88;5090691;28;20520;-75
2022/03/29 07:15:17;;;;;;;19.65;9.63;;;;;;;8.56;52.21;95055.06;5085655;28;20042;-74
2022/03/29 07:17:43;;;;;;;19.33;9.20;;;;;;;8.74;51.36;95056.28;5110825;28;20440;-74
2022/03/29 07:20:09;;;;;;;23.55;9.10;;;;;;;8.89;52.20;95047.56;5091973;28;20047;-75
2022/03/29 07:22:35;;;;;;;20.15;9.55;;;;;;;9.01;51.63;95042.00;5090126;28;20038;-74
2022/03/29 07:25:01;;;;;;;21.10;9.70;;;;;;;9.13;51.48;95050.31;5071879;28;20040;-75
2022/03/29 07:27:27;;;;;;;20.15;9.75;;;;;;;9.34;50.68;95039.72;5089912;28;20047;-74
2022/03/29 07:29:53;;;;;;;20.23;9.40;;;;;;;9.48;50.13;95048.56;5090568;28;20123;-73
2022/03/29 07:32:19;;;;;;;22.30;8.95;;;;;;;9.67;49.86;95045.28;5071819;28;20044;-73
2022/03/29 07:34:44;;;;;;;20.48;8.85;;;;;;;9.86;49.02;95034.88;5090912;27;20051;-74
2022/03/29 07:37:10;;;;;;;18.85;9.40;;;;;;;10.08;48.17;95033.63;5090320;28;20044;-74
2022/03/29 07:39:35;;;;;;;13.93;8.07;;;;;;;10.22;48.50;95035.31;5090180;28;20561;-74
2022/03/29 07:42:01;;;;;;;17.55;8.93;;;;;;;10.47;47.03;95041.41;5090577;28;20102;-74
2022/03/29 07:44:27;;;;;;;19.55;9.15;;;;;;;10.68;46.32;95035.94;5089904;28;20040;-73
2022/03/29 07:46:52;;;;;;;23.33;9.32;;;;;;;10.86;45.42;95032.56;5090154;28;20040;-74
2022/03/29 07:49:17;;;;;;;16.15;8.77;;;;;;;10.95;45.09;95040.63;5089959;28;20044;-74
2022/03/29 07:51:43;;;;;;;16.75;8.50;;;;;;;11.19;43.79;95032.66;5096800;28;20480;-74
2022/03/29 07:54:09;;;;;;;18.27;9.40;;;;;;;11.34;43.17;95036.16;5109638;28;20039;-74
2022/03/29 07:56:34;;;;;;;17.92;9.23;;;;;;;11.38;43.57;95037.16;5108862;28;20071;-76
2022/03/29 07:59:00;;;;;;;19.13;9.45;;;;;;;11.50;44.16;95037.50;5108737;28;20672;-74
2022/03/29 08:01:26;;;;;;;21.83;9.35;;;;;;;11.44;43.50;95038.63;5099228;28;20050;-74
2022/03/29 08:03:51;;;;;;;39.65;11.00;;;;;;;11.43;43.48;95039.69;5112620;27;20470;-73
2022/03/29 08:06:17;;;;;;;17.38;9.27;;;;;;;11.81;42.36;95034.41;5103037;27;20044;-72
2022/03/29 08:08:43;;;;;;;17.60;9.63;;;;;;;11.85;41.77;95030.13;5110691;27;20043;-76
2022/03/29 08:11:09;;;;;;;18.95;9.45;;;;;;;12.06;40.34;95019.25;5130704;27;20050;-76
2022/03/29 08:13:35;;;;;;;18.38;9.75;;;;;;;11.94;40.94;95028.41;5101991;28;20031;-76
2022/03/29 08:16:02;;;;;;;18.80;9.35;;;;;;;12.15;40.83;95022.78;5091996;28;20504;-75
2022/03/29 08:18:31;;;;;;;20.02;9.23;;;;;;;12.30;40.12;95030.41;5111967;28;20088;-77
2022/03/29 08:20:57;;;;;;;21.75;9.70;;;;;;;12.38;40.23;95025.53;5111499;28;20040;-77
2022/03/29 08:23:23;;;;;;;17.20;9.25;;;;;;;12.44;39.96;95030.44;5093002;28;20044;-77
2022/03/29 08:25:48;;;;;;;13.77;8.80;;;;;;;12.57;39.50;95023.59;5075666;28;20719;-78
2022/03/29 08:28:15;;;;;;;19.88;9.63;;;;;;;12.78;38.79;95023.19;5094430;28;20044;-78
2022/03/29 08:30:42;;;;;;;18.15;9.35;;;;;;;12.85;38.71;95023.56;5073259;28;20036;-76
2022/03/29 08:33:08;;;;;;;16.15;9.65;;;;;;;12.74;40.16;95022.22;5071316;28;20123;-77
2022/03/29 08:35:37;;;;;;;18.98;9.48;;;;;;;12.76;39.56;95017.44;5090186;28;20059;-77
2022/03/29 08:38:03;;;;;;;19.10;9.15;;;;;;;12.85;39.16;95013.00;5094934;28;20039;-76
2022/03/29 08:40:29;;;;;;;18.02;8.95;;;;;;;12.90;39.48;95020.84;5118799;28;20047;-77
2022/03/29 08:42:58;;;;;;;18.15;9.00;;;;;;;13.14;39.08;95014.53;5113444;28;20086;-77
2022/03/29 08:45:27;;;;;;;16.35;8.40;;;;;;;13.08;39.73;95011.22;5094262;28;20036;-77
2022/03/29 08:47:56;;;;;;;17.50;8.85;;;;;;;13.16;40.38;95012.38;5115272;28;20068;-77
2022/03/29 08:50:24;;;;;;;15.52;8.15;;;;;;;13.34;38.60;95014.09;5097732;28;20089;-78
2022/03/29 08:52:52;;;;;;;16.33;8.77;;;;;;;13.59;39.15;95006.69;5113779;28;20055;-78
2022/03/29 08:55:19;;;;;;;20.02;9.30;;;;;;;13.62;39.09;95003.44;5095366;28;20060;-77
2022/03/29 08:57:48;;;;;;;20.63;9.93;;;;;;;13.88;37.70;95000.19;5094060;28;20048;-77
2022/03/29 09:00:15;;;;;;;21.08;9.93;;;;;;;13.91;38.04;95004.88;5094747;28;20545;-78
2022/03/29 09:02:40;;;;;;;19.33;9.65;;;;;;;14.20;37.22;95000.97;5094534;28;20040;-78
2022/03/29 09:05:14;;;;;;;17.27;9.00;;;;;;;14.47;36.06;94999.22;5094616;28;20040;-77
2022/03/29 09:07:50;;;;;;;21.30;10.38;;;;;;;14.49;35.40;95000.44;5094264;28;20040;-78
2022/03/29 09:10:16;;;;;;;17.92;9.63;;;;;;;14.59;35.96;94995.97;5093811;28;20119;-77
2022/03/29 09:12:43;;;;;;;18.08;9.88;;;;;;;14.82;35.39;95004.63;5087014;28;20051;-78
2022/03/29 09:15:09;;;;;;;20.98;10.45;;;;;;;14.97;35.00;94996.25;5095383;28;20035;-77
2022/03/29 09:17:44;;;;;;;19.55;9.55;;;;;;;14.92;35.09;94999.03;5114259;28;20043;-77
2022/03/29 09:20:26;;;;;;;29.85;9.85;;;;;;;15.06;34.68;94997.03;5088375;28;20052;-77
2022/03/29 09:22:55;;;;;;;17.25;10.02;;;;;;;15.02;34.64;94993.44;5093362;28;20056;-77
2022/03/29 09:25:34;;;;;;;22.58;10.07;;;;;;;15.02;34.72;94998.75;5093472;28;20101;-78
2022/03/29 09:28:04;;;;;;;19.05;9.88;;;;;;;15.13;35.08;94982.53;5094779;28;20058;-77
2022/03/29 09:30:40;;;;;;;17.77;9.65;;;;;;;15.01;35.36;94991.09;5078486;28;20064;-78
2022/03/29 09:33:14;;;;;;;16.95;9.07;;;;;;;15.15;34.24;94985.66;5078007;28;20120;-77
2022/03/29 09:36:21;;;;;;;18.55;9.23;;;;;;;15.13;34.74;94987.84;5095405;28;20055;-77
2022/03/29 09:38:51;;;;;;;19.90;9.27;;;;;;;15.40;34.12;94986.75;5096370;28;20051;-77
2022/03/29 09:41:22;;;;;;;14.05;8.68;;;;;;;15.38;34.82;94981.75;5095242;28;20040;-77
2022/03/29 09:44:11;;;;;;;17.17;9.60;;;;;;;15.46;35.32;94968.81;5086927;28;20048;-77
2022/03/29 09:46:59;;;;;;;19.00;9.57;;;;;;;15.50;35.98;94975.84;5096250;28;20071;-77
2022/03/29 09:49:26;;;;;;;18.23;9.57;;;;;;;15.69;34.38;94970.22;5095970;28;20051;-77
2022/03/29 09:52:08;;;;;;;20.45;10.13;;;;;;;15.72;34.78;94966.91;5098354;28;20102;-78
2022/03/29 09:54:33;;;;;;;18.23;9.98;;;;;;;15.77;34.71;94958.00;5096945;28;20048;-78
2022/03/29 09:56:59;;;;;;;18.00;10.07;;;;;;;15.72;34.56;94961.63;5096585;28;20048;-78
2022/03/29 09:59:24;;;;;;;15.88;10.38;;;;;;;15.74;33.90;94966.59;5096890;28;20467;-77
2022/03/29 10:01:57;;;;;;;17.48;10.00;;;;;;;16.09;33.75;94943.44;5078182;28;20036;-78
2022/03/29 10:04:29;;;;;;;21.20;9.82;;;;;;;16.24;33.36;94949.31;5095140;28;20044;-78
2022/03/29 10:06:57;;;;;;;19.50;9.90;;;;;;;16.51;32.57;94948.09;5093558;28;20040;-77
2022/03/29 10:09:27;;;;;;;18.52;10.48;;;;;;;16.45;31.87;94939.53;5096027;28;20046;-77
2022/03/29 10:11:58;;;;;;;16.48;9.77;;;;;;;16.46;32.57;94935.00;5095647;28;20409;-78
2022/03/29 10:14:26;;;;;;;20.13;10.65;;;;;;;16.59;31.77;94933.19;5093760;28;20532;-77
2022/03/29 10:16:55;;;;;;;19.60;10.15;;;;;;;16.26;33.40;94928.53;5094074;28;20417;-77
2022/03/29 10:19:22;;;;;;;18.05;10.40;;;;;;;16.33;32.27;94931.47;5106511;28;20488;-77
2022/03/29 10:21:48;;;;;;;18.33;9.95;;;;;;;16.23;33.35;94922.00;5113424;27;20520;-77
2022/03/29 10:24:16;;;;;;;19.17;10.80;;;;;;;16.39;32.79;94919.56;5108124;28;20040;-77
2022/03/29 10:26:48;;;;;;;18.52;10.73;;;;;;;16.38;32.07;94918.00;5090794;28;20424;-78
2022/03/29 10:29:14;;;;;;;18.65;10.50;;;;;;;16.09;32.46;94914.25;5093263;28;20043;-75
2022/03/29 10:32:00;;;;;;;20.55;10.00;;;;;;;16.16;33.77;94912.97;5106196;28;20116;-75
2022/03/29 10:34:27;;;;;;;16.48;10.18;;;;;;;16.27;31.75;94911.50;5091438;28;20490;-75
2022/03/29 10:37:12;;;;;;;22.05;10.40;;;;;;;16.20;31.92;94905.91;5106870;28;20421;-73
2022/03/29 10:39:44;;;;;;;20.65;10.65;;;;;;;16.16;32.68;94905.00;5111835;28;20504;-74
2022/03/29 10:42:33;;;;;;;19.85;10.60;;;;;;;16.25;32.40;94905.75;5111613;28;20612;-74
2022/03/29 10:45:22;;;;;;;17.10;9.77;;;;;;;16.45;31.26;94907.66;5089170;28;20051;-75
2022/03/29 10:47:56;;;;;;;24.08;10.75;;;;;;;16.43;31.40;94904.56;5096593;28;20472;-75
2022/03/29 10:50:41;;;;;;;27.27;10.63;;;;;;;16.43;31.04;94901.91;5111805;28;20043;-76
2022/03/29 10:53:37;;;;;;;16.13;9.50;;;;;;;16.43;30.48;94899.25;5106287;28;20573;-76
2022/03/29 10:56:15;;;;;;;16.60;9.98;;;;;;;16.64;30.56;94895.84;5121420;27;20043;-74
2022/03/29 10:59:02;;;;;;;21.00;9.77;;;;;;;16.63;30.01;94905.66;5093342;28;20090;-75
2022/03/29 11:01:33;;;;;;;22.70;11.05;;;;;;;16.73;30.18;94891.22;5092588;28;20475;-76
2022/03/29 11:03:59;;;;;;;22.67;10.43;;;;;;;16.58;30.59;94894.47;5110892;28;20051;-74
2022/03/29 11:06:24;;;;;;;18.48;10.43;;;;;;;16.66;30.62;94895.50;5106390;28;20077;-72
2022/03/29 11:09:03;;;;;;;20.67;10.70;;;;;;;16.75;31.06;94894.38;5122547;27;20067;-72
2022/03/29 11:11:46;;;;;;;15.98;9.43;;;;;;;16.71;30.47;94888.13;5110997;28;20416;-73
2022/03/29 11:14:28;;;;;;;17.05;10.10;;;;;;;16.63;30.58;94883.66;5107400;28;20035;-74
2022/03/29 11:17:11;;;;;;;17.45;10.00;;;;;;;16.74;31.61;94887.47;5097850;27;20043;-74
2022/03/29 11:19:42;;;;;;;23.33;10.07;;;;;;;16.65;29.99;94878.81;5110888;27;20588;-74
2022/03/29 11:22:36;;;;;;;20.42;9.88;;;;;;;16.84;30.87;94880.22;5108498;28;20067;-73
2022/03/29 11:25:05;;;;;;;18.80;10.38;;;;;;;16.83;30.58;94873.38;5082160;28;20059;-73
2022/03/29 11:27:33;;;;;;;21.10;10.18;;;;;;;16.92;29.47;94882.06;5071893;28;20044;-74
2022/03/29 11:30:00;;;;;;;17.30;9.57;;;;;;;16.92;28.90;94884.72;5072878;28;20398;-73
2022/03/29 11:32:26;;;;;;;24.90;9.48;;;;;;;16.90;29.40;94868.34;5109939;28;20088;-73
2022/03/29 11:34:57;;;;;;;17.90;9.73;;;;;;;16.80;29.57;94869.47;5109639;28;20055;-73
2022/03/29 11:37:38;;;;;;;17.00;9.38;;;;;;;17.24;28.96;94861.16;5071955;28;20502;-73